sensor_id;sensor_type;location;lat;lon;timestamp;pressure;altitude;pressure_sealevel;temperature;humidity
70976;BME280;58635;51.198;6.010;2023-12-07T00:02:05;101813.84;;;5.50;64.48
70976;BME280;58635;51.198;6.010;2023-12-07T00:04:32;101814.78;;;5.49;64.34
70976;BME280;58635;51.198;6.010;2023-12-07T00:06:58;101821.69;;;5.49;64.11
70976;BME280;58635;51.198;6.010;2023-12-07T00:09:24;101823.44;;;5.48;64.07
70976;BME280;58635;51.198;6.010;2023-12-07T00:11:51;101812.75;;;5.43;63.95
70976;BME280;58635;51.198;6.010;2023-12-07T00:14:17;101818.00;;;5.42;63.94
70976;BME280;58635;51.198;6.010;2023-12-07T00:16:43;101814.78;;;5.40;64.06
70976;BME280;58635;51.198;6.010;2023-12-07T00:19:10;101821.00;;;5.37;64.21
70976;BME280;58635;51.198;6.010;2023-12-07T00:21:36;101814.25;;;5.36;64.17
70976;BME280;58635;51.198;6.010;2023-12-07T00:24:02;101816.25;;;5.33;63.85
70976;BME280;58635;51.198;6.010;2023-12-07T00:26:29;101819.06;;;5.29;63.95
70976;BME280;58635;51.198;6.010;2023-12-07T00:28:55;101822.59;;;5.28;64.13
70976;BME280;58635;51.198;6.010;2023-12-07T00:31:22;101811.53;;;5.28;63.85
70976;BME280;58635;51.198;6.010;2023-12-07T00:33:48;101815.16;;;5.25;63.82
70976;BME280;58635;51.198;6.010;2023-12-07T00:36:14;101809.38;;;5.23;64.05
70976;BME280;58635;51.198;6.010;2023-12-07T00:38:41;101806.94;;;5.22;64.02
70976;BME280;58635;51.198;6.010;2023-12-07T00:41:07;101813.13;;;5.19;64.09
70976;BME280;58635;51.198;6.010;2023-12-07T00:43:33;101814.88;;;5.19;64.11
70976;BME280;58635;51.198;6.010;2023-12-07T00:46:00;101808.13;;;5.18;63.95
70976;BME280;58635;51.198;6.010;2023-12-07T00:48:26;101809.06;;;5.17;64.28
70976;BME280;58635;51.198;6.010;2023-12-07T00:50:52;101804.09;;;5.15;64.28
70976;BME280;58635;51.198;6.010;2023-12-07T00:53:19;101804.22;;;5.14;63.97
70976;BME280;58635;51.198;6.010;2023-12-07T00:55:45;101805.97;;;5.13;64.09
70976;BME280;58635;51.198;6.010;2023-12-07T00:58:11;101808.81;;;5.10;63.77
70976;BME280;58635;51.198;6.010;2023-12-07T01:00:38;101802.31;;;5.06;64.05
70976;BME280;58635;51.198;6.010;2023-12-07T01:03:04;101812.44;;;5.08;64.26
70976;BME280;58635;51.198;6.010;2023-12-07T01:05:31;101815.94;;;5.07;63.79
70976;BME280;58635;51.198;6.010;2023-12-07T01:07:58;101815.25;;;5.05;63.83
70976;BME280;58635;51.198;6.010;2023-12-07T01:10:24;101812.28;;;4.99;63.63
70976;BME280;58635;51.198;6.010;2023-12-07T01:12:50;101816.47;;;5.01;64.17
70976;BME280;58635;51.198;6.010;2023-12-07T01:15:17;101822.69;;;4.98;63.93
70976;BME280;58635;51.198;6.010;2023-12-07T01:17:43;101818.59;;;4.95;64.34
70976;BME280;58635;51.198;6.010;2023-12-07T01:20:10;101819.56;;;4.94;64.00
70976;BME280;58635;51.198;6.010;2023-12-07T01:22:39;101813.75;;;4.92;64.39
70976;BME280;58635;51.198;6.010;2023-12-07T01:25:07;101818.06;;;4.92;64.40
70976;BME280;58635;51.198;6.010;2023-12-07T01:27:34;101825.91;;;4.90;64.40
70976;BME280;58635;51.198;6.010;2023-12-07T01:30:01;101823.31;;;4.90;64.20
70976;BME280;58635;51.198;6.010;2023-12-07T01:32:27;101830.22;;;4.90;64.13
70976;BME280;58635;51.198;6.010;2023-12-07T01:34:53;101829.41;;;4.89;64.33
70976;BME280;58635;51.198;6.010;2023-12-07T01:37:20;101831.97;;;4.89;63.92
70976;BME280;58635;51.198;6.010;2023-12-07T01:39:46;101836.41;;;4.87;63.88
70976;BME280;58635;51.198;6.010;2023-12-07T01:42:12;101839.91;;;4.86;64.24
70976;BME280;58635;51.198;6.010;2023-12-07T01:44:39;101839.22;;;4.84;64.12
70976;BME280;58635;51.198;6.010;2023-12-07T01:47:06;101845.16;;;4.85;64.26
70976;BME280;58635;51.198;6.010;2023-12-07T01:49:35;101849.47;;;4.84;64.13
70976;BME280;58635;51.198;6.010;2023-12-07T01:52:02;101853.91;;;4.82;63.99
70976;BME280;58635;51.198;6.010;2023-12-07T01:54:29;101848.91;;;4.81;64.29
70976;BME280;58635;51.198;6.010;2023-12-07T01:56:56;101847.03;;;4.83;64.38
70976;BME280;58635;51.198;6.010;2023-12-07T01:59:23;101846.91;;;4.84;64.64
70976;BME280;58635;51.198;6.010;2023-12-07T02:01:50;101846.66;;;4.87;64.76
70976;BME280;58635;51.198;6.010;2023-12-07T02:04:17;101848.69;;;4.93;65.02
70976;BME280;58635;51.198;6.010;2023-12-07T02:06:43;101843.19;;;4.98;65.11
70976;BME280;58635;51.198;6.010;2023-12-07T02:09:10;101836.03;;;5.02;65.38
70976;BME280;58635;51.198;6.010;2023-12-07T02:11:36;101841.72;;;5.05;65.44
70976;BME280;58635;51.198;6.010;2023-12-07T02:14:02;101844.13;;;5.07;65.68
70976;BME280;58635;51.198;6.010;2023-12-07T02:16:35;101845.38;;;5.12;65.68
70976;BME280;58635;51.198;6.010;2023-12-07T02:19:48;101851.06;;;5.16;65.78
70976;BME280;58635;51.198;6.010;2023-12-07T02:22:25;101851.50;;;5.21;65.75
70976;BME280;58635;51.198;6.010;2023-12-07T02:25:10;101853.78;;;5.24;65.78
70976;BME280;58635;51.198;6.010;2023-12-07T02:27:45;101854.47;;;5.26;65.73
70976;BME280;58635;51.198;6.010;2023-12-07T02:30:12;101858.63;;;5.27;65.88
70976;BME280;58635;51.198;6.010;2023-12-07T02:32:40;101860.94;;;5.30;65.99
70976;BME280;58635;51.198;6.010;2023-12-07T02:35:08;101859.84;;;5.33;66.10
70976;BME280;58635;51.198;6.010;2023-12-07T02:37:41;101848.78;;;5.32;66.05
70976;BME280;58635;51.198;6.010;2023-12-07T02:40:08;101847.72;;;5.35;66.36
70976;BME280;58635;51.198;6.010;2023-12-07T02:42:41;101842.72;;;5.33;66.29
70976;BME280;58635;51.198;6.010;2023-12-07T02:45:10;101852.59;;;5.38;66.27
70976;BME280;58635;51.198;6.010;2023-12-07T02:47:37;101855.28;;;5.36;66.50
70976;BME280;58635;51.198;6.010;2023-12-07T02:50:05;101858.78;;;5.35;66.47
70976;BME280;58635;51.198;6.010;2023-12-07T02:52:33;101855.28;;;5.36;66.29
70976;BME280;58635;51.198;6.010;2023-12-07T02:54:59;101854.34;;;5.37;66.61
70976;BME280;58635;51.198;6.010;2023-12-07T02:57:25;101854.47;;;5.36;66.53
70976;BME280;58635;51.198;6.010;2023-12-07T02:59:52;101853.00;;;5.33;66.52
70976;BME280;58635;51.198;6.010;2023-12-07T03:02:18;101853.09;;;5.32;66.68
70976;BME280;58635;51.198;6.010;2023-12-07T03:04:45;101857.69;;;5.28;66.65
70976;BME280;58635;51.198;6.010;2023-12-07T03:07:11;101857.84;;;5.26;66.56
70976;BME280;58635;51.198;6.010;2023-12-07T03:09:37;101854.72;;;5.23;66.64
70976;BME280;58635;51.198;6.010;2023-12-07T03:12:04;101853.09;;;5.22;66.84
70976;BME280;58635;51.198;6.010;2023-12-07T03:14:30;101847.53;;;5.17;66.97
70976;BME280;58635;51.198;6.010;2023-12-07T03:16:57;101841.06;;;5.13;66.64
70976;BME280;58635;51.198;6.010;2023-12-07T03:19:23;101841.88;;;5.13;67.22
70976;BME280;58635;51.198;6.010;2023-12-07T03:21:49;101838.50;;;5.13;66.98
70976;BME280;58635;51.198;6.010;2023-12-07T03:24:16;101848.09;;;5.20;67.23
70976;BME280;58635;51.198;6.010;2023-12-07T03:26:42;101847.97;;;5.22;66.88
70976;BME280;58635;51.198;6.010;2023-12-07T03:29:08;101843.53;;;5.24;67.26
70976;BME280;58635;51.198;6.010;2023-12-07T03:31:35;101843.25;;;5.27;67.12
70976;BME280;58635;51.198;6.010;2023-12-07T03:34:01;101847.28;;;5.29;66.91
70976;BME280;58635;51.198;6.010;2023-12-07T03:36:28;101837.03;;;5.29;66.76
70976;BME280;58635;51.198;6.010;2023-12-07T03:38:54;101846.91;;;5.34;66.94
70976;BME280;58635;51.198;6.010;2023-12-07T03:41:20;101846.78;;;5.36;66.99
70976;BME280;58635;51.198;6.010;2023-12-07T03:43:46;101844.75;;;5.39;66.98
70976;BME280;58635;51.198;6.010;2023-12-07T03:46:13;101844.47;;;5.42;67.12
70976;BME280;58635;51.198;6.010;2023-12-07T03:48:39;101845.16;;;5.44;66.93
70976;BME280;58635;51.198;6.010;2023-12-07T03:51:06;101848.28;;;5.48;66.94
70976;BME280;58635;51.198;6.010;2023-12-07T03:53:32;101841.13;;;5.51;67.02
70976;BME280;58635;51.198;6.010;2023-12-07T03:55:58;101845.97;;;5.54;66.94
70976;BME280;58635;51.198;6.010;2023-12-07T03:58:25;101840.84;;;5.54;67.11
70976;BME280;58635;51.198;6.010;2023-12-07T04:00:51;101843.84;;;5.60;66.98
70976;BME280;58635;51.198;6.010;2023-12-07T04:03:17;101844.63;;;5.60;67.25
70976;BME280;58635;51.198;6.010;2023-12-07T04:05:44;101845.16;;;5.64;66.81
70976;BME280;58635;51.198;6.010;2023-12-07T04:08:10;101841.53;;;5.66;67.05
70976;BME280;58635;51.198;6.010;2023-12-07T04:10:37;101855.97;;;5.67;67.00
70976;BME280;58635;51.198;6.010;2023-12-07T04:13:03;101860.03;;;5.70;67.07
70976;BME280;58635;51.198;6.010;2023-12-07T04:15:29;101862.63;;;5.70;67.04
70976;BME280;58635;51.198;6.010;2023-12-07T04:17:56;101862.47;;;5.71;66.88
70976;BME280;58635;51.198;6.010;2023-12-07T04:20:22;101862.47;;;5.71;67.08
70976;BME280;58635;51.198;6.010;2023-12-07T04:22:48;101872.59;;;5.73;67.08
70976;BME280;58635;51.198;6.010;2023-12-07T04:25:15;101869.09;;;5.74;67.11
70976;BME280;58635;51.198;6.010;2023-12-07T04:27:41;101867.34;;;5.74;67.16
70976;BME280;58635;51.198;6.010;2023-12-07T04:30:08;101867.34;;;5.74;66.80
70976;BME280;58635;51.198;6.010;2023-12-07T04:32:34;101871.53;;;5.75;66.86
70976;BME280;58635;51.198;6.010;2023-12-07T04:35:01;101868.94;;;5.75;66.87
70976;BME280;58635;51.198;6.010;2023-12-07T04:37:27;101876.66;;;5.75;66.87
70976;BME280;58635;51.198;6.010;2023-12-07T04:39:53;101881.78;;;5.75;66.96
70976;BME280;58635;51.198;6.010;2023-12-07T04:42:20;101882.47;;;5.77;66.86
70976;BME280;58635;51.198;6.010;2023-12-07T04:44:46;101890.84;;;5.79;67.01
70976;BME280;58635;51.198;6.010;2023-12-07T04:47:12;101888.25;;;5.79;67.02
70976;BME280;58635;51.198;6.010;2023-12-07T04:49:39;101895.06;;;5.80;67.14
70976;BME280;58635;51.198;6.010;2023-12-07T04:52:05;101897.47;;;5.82;66.99
70976;BME280;58635;51.198;6.010;2023-12-07T04:54:31;101900.72;;;5.84;67.39
70976;BME280;58635;51.198;6.010;2023-12-07T04:56:58;101898.97;;;5.84;67.22
70976;BME280;58635;51.198;6.010;2023-12-07T04:59:24;101894.50;;;5.86;66.98
70976;BME280;58635;51.198;6.010;2023-12-07T05:01:51;101888.69;;;5.84;67.08
70976;BME280;58635;51.198;6.010;2023-12-07T05:04:17;101882.75;;;5.84;67.06
70976;BME280;58635;51.198;6.010;2023-12-07T05:06:43;101886.94;;;5.85;67.17
70976;BME280;58635;51.198;6.010;2023-12-07T05:09:10;101884.38;;;5.85;67.02
70976;BME280;58635;51.198;6.010;2023-12-07T05:11:36;101882.75;;;5.84;67.24
70976;BME280;58635;51.198;6.010;2023-12-07T05:14:03;101881.13;;;5.83;67.42
70976;BME280;58635;51.198;6.010;2023-12-07T05:16:30;101882.75;;;5.84;67.31
70976;BME280;58635;51.198;6.010;2023-12-07T05:18:56;101879.38;;;5.83;67.34
70976;BME280;58635;51.198;6.010;2023-12-07T05:21:22;101871.66;;;5.83;66.97
70976;BME280;58635;51.198;6.010;2023-12-07T05:23:48;101870.19;;;5.81;67.24
70976;BME280;58635;51.198;6.010;2023-12-07T05:26:15;101875.44;;;5.79;67.35
70976;BME280;58635;51.198;6.010;2023-12-07T05:28:42;101873.66;;;5.80;67.46
70976;BME280;58635;51.198;6.010;2023-12-07T05:31:08;101871.25;;;5.78;67.25
70976;BME280;58635;51.198;6.010;2023-12-07T05:33:34;101868.53;;;5.80;67.44
70976;BME280;58635;51.198;6.010;2023-12-07T05:36:01;101853.97;;;5.80;67.31
70976;BME280;58635;51.198;6.010;2023-12-07T05:38:29;101864.25;;;5.80;67.46
70976;BME280;58635;51.198;6.010;2023-12-07T05:40:55;101852.31;;;5.79;67.29
70976;BME280;58635;51.198;6.010;2023-12-07T05:43:22;101857.59;;;5.78;67.64
70976;BME280;58635;51.198;6.010;2023-12-07T05:45:48;101859.34;;;5.77;67.33
70976;BME280;58635;51.198;6.010;2023-12-07T05:48:14;101848.41;;;5.75;67.25
70976;BME280;58635;51.198;6.010;2023-12-07T05:50:41;101851.13;;;5.74;67.33
70976;BME280;58635;51.198;6.010;2023-12-07T05:53:07;101852.06;;;5.73;67.33
70976;BME280;58635;51.198;6.010;2023-12-07T05:55:35;101859.91;;;5.71;67.59
70976;BME280;58635;51.198;6.010;2023-12-07T05:58:01;101854.63;;;5.73;67.38
70976;BME280;58635;51.198;6.010;2023-12-07T06:00:27;101862.34;;;5.73;67.50
70976;BME280;58635;51.198;6.010;2023-12-07T06:02:54;101857.88;;;5.75;67.54
70976;BME280;58635;51.198;6.010;2023-12-07T06:05:20;101852.47;;;5.78;67.72
70976;BME280;58635;51.198;6.010;2023-12-07T06:07:47;101844.63;;;5.79;67.55
70976;BME280;58635;51.198;6.010;2023-12-07T06:10:13;101844.50;;;5.81;67.33
70976;BME280;58635;51.198;6.010;2023-12-07T06:12:40;101840.03;;;5.83;67.25
70976;BME280;58635;51.198;6.010;2023-12-07T06:15:06;101829.63;;;5.84;67.60
70976;BME280;58635;51.198;6.010;2023-12-07T06:17:33;101827.22;;;5.83;67.60
70976;BME280;58635;51.198;6.010;2023-12-07T06:20:00;101836.66;;;5.82;67.74
70976;BME280;58635;51.198;6.010;2023-12-07T06:22:26;101838.56;;;5.80;67.45
70976;BME280;58635;51.198;6.010;2023-12-07T06:24:52;101825.03;;;5.78;67.50
70976;BME280;58635;51.198;6.010;2023-12-07T06:27:19;101833.97;;;5.84;67.35
70976;BME280;58635;51.198;6.010;2023-12-07T06:29:45;101835.72;;;5.83;67.32
70976;BME280;58635;51.198;6.010;2023-12-07T06:32:11;101826.94;;;5.86;67.18
70976;BME280;58635;51.198;6.010;2023-12-07T06:34:41;101834.63;;;5.86;67.63
70976;BME280;58635;51.198;6.010;2023-12-07T06:37:07;101827.88;;;5.85;67.64
70976;BME280;58635;51.198;6.010;2023-12-07T06:39:33;101829.09;;;5.91;67.65
70976;BME280;58635;51.198;6.010;2023-12-07T06:42:00;101831.44;;;5.94;67.54
70976;BME280;58635;51.198;6.010;2023-12-07T06:44:26;101827.09;;;5.94;67.49
70976;BME280;58635;51.198;6.010;2023-12-07T06:46:52;101829.66;;;5.94;67.40
70976;BME280;58635;51.198;6.010;2023-12-07T06:49:19;101831.56;;;5.92;67.44
70976;BME280;58635;51.198;6.010;2023-12-07T06:51:45;101837.38;;;5.94;67.35
70976;BME280;58635;51.198;6.010;2023-12-07T06:54:11;101836.41;;;5.95;67.47
70976;BME280;58635;51.198;6.010;2023-12-07T06:56:37;101831.94;;;5.97;67.43
70976;BME280;58635;51.198;6.010;2023-12-07T06:59:04;101832.63;;;5.99;67.11
70976;BME280;58635;51.198;6.010;2023-12-07T07:01:30;101835.03;;;6.01;67.19
70976;BME280;58635;51.198;6.010;2023-12-07T07:03:56;101830.72;;;6.01;67.08
70976;BME280;58635;51.198;6.010;2023-12-07T07:06:23;101828.44;;;5.98;67.11
70976;BME280;58635;51.198;6.010;2023-12-07T07:08:49;101829.75;;;6.02;67.05
70976;BME280;58635;51.198;6.010;2023-12-07T07:11:15;101816.94;;;6.02;67.35
70976;BME280;58635;51.198;6.010;2023-12-07T07:13:42;101812.59;;;6.03;66.94
70976;BME280;58635;51.198;6.010;2023-12-07T07:16:08;101810.84;;;6.03;66.92
70976;BME280;58635;51.198;6.010;2023-12-07T07:18:37;101812.50;;;6.04;66.95
70976;BME280;58635;51.198;6.010;2023-12-07T07:21:04;101817.34;;;6.07;67.08
70976;BME280;58635;51.198;6.010;2023-12-07T07:23:30;101834.09;;;6.11;66.82
70976;BME280;58635;51.198;6.010;2023-12-07T07:25:57;101827.31;;;6.10;66.89
70976;BME280;58635;51.198;6.010;2023-12-07T07:28:23;101827.19;;;6.12;66.78
70976;BME280;58635;51.198;6.010;2023-12-07T07:30:49;101830.41;;;6.14;66.92
70976;BME280;58635;51.198;6.010;2023-12-07T07:33:17;101827.19;;;6.12;66.69
70976;BME280;58635;51.198;6.010;2023-12-07T07:35:43;101834.09;;;6.11;66.70
70976;BME280;58635;51.198;6.010;2023-12-07T07:38:10;101828.94;;;6.11;66.67
70976;BME280;58635;51.198;6.010;2023-12-07T07:40:36;101833.56;;;6.08;66.54
70976;BME280;58635;51.198;6.010;2023-12-07T07:43:03;101843.69;;;6.09;66.73
70976;BME280;58635;51.198;6.010;2023-12-07T07:45:29;101839.22;;;6.11;66.80
70976;BME280;58635;51.198;6.010;2023-12-07T07:47:55;101833.13;;;6.12;66.69
70976;BME280;58635;51.198;6.010;2023-12-07T07:50:22;101826.09;;;6.14;66.60
70976;BME280;58635;51.198;6.010;2023-12-07T07:52:49;101837.06;;;6.17;66.81
70976;BME280;58635;51.198;6.010;2023-12-07T07:55:15;101824.06;;;6.18;66.56
70976;BME280;58635;51.198;6.010;2023-12-07T07:57:41;101827.31;;;6.20;66.48
70976;BME280;58635;51.198;6.010;2023-12-07T08:00:09;101826.50;;;6.20;66.40
70976;BME280;58635;51.198;6.010;2023-12-07T08:02:36;101841.78;;;6.21;66.66
70976;BME280;58635;51.198;6.010;2023-12-07T08:05:05;101833.25;;;6.21;66.35
70976;BME280;58635;51.198;6.010;2023-12-07T08:07:32;101838.41;;;6.21;66.39
70976;BME280;58635;51.198;6.010;2023-12-07T08:09:58;101839.34;;;6.20;66.31
70976;BME280;58635;51.198;6.010;2023-12-07T08:12:24;101836.63;;;6.21;66.45
70976;BME280;58635;51.198;6.010;2023-12-07T08:14:51;101828.13;;;6.21;66.39
70976;BME280;58635;51.198;6.010;2023-12-07T08:17:17;101828.78;;;6.23;66.33
70976;BME280;58635;51.198;6.010;2023-12-07T08:19:45;101823.50;;;6.24;66.40
70976;BME280;58635;51.198;6.010;2023-12-07T08:22:11;101818.38;;;6.24;66.58
70976;BME280;58635;51.198;6.010;2023-12-07T08:24:41;101819.03;;;6.26;66.57
70976;BME280;58635;51.198;6.010;2023-12-07T08:27:07;101818.38;;;6.24;66.35
70976;BME280;58635;51.198;6.010;2023-12-07T08:29:34;101823.38;;;6.26;66.31
70976;BME280;58635;51.198;6.010;2023-12-07T08:32:01;101819.31;;;6.23;66.29
70976;BME280;58635;51.198;6.010;2023-12-07T08:34:27;101824.88;;;6.19;66.22
70976;BME280;58635;51.198;6.010;2023-12-07T08:36:54;101829.63;;;6.13;66.37
70976;BME280;58635;51.198;6.010;2023-12-07T08:39:20;101818.97;;;6.08;66.21
70976;BME280;58635;51.198;6.010;2023-12-07T08:41:47;101830.03;;;6.09;66.42
70976;BME280;58635;51.198;6.010;2023-12-07T08:44:13;101825.03;;;6.07;66.33
70976;BME280;58635;51.198;6.010;2023-12-07T08:46:39;101833.56;;;6.08;66.34
70976;BME280;58635;51.198;6.010;2023-12-07T08:49:06;101825.19;;;6.06;66.15
70976;BME280;58635;51.198;6.010;2023-12-07T08:51:32;101832.88;;;6.06;66.07
70976;BME280;58635;51.198;6.010;2023-12-07T08:53:58;101834.78;;;6.04;66.40
70976;BME280;58635;51.198;6.010;2023-12-07T08:56:25;101828.00;;;6.03;66.43
70976;BME280;58635;51.198;6.010;2023-12-07T08:58:51;101822.88;;;6.03;66.05
70976;BME280;58635;51.198;6.010;2023-12-07T09:01:18;101827.34;;;6.01;66.17
70976;BME280;58635;51.198;6.010;2023-12-07T09:03:44;101833.56;;;5.98;66.27
70976;BME280;58635;51.198;6.010;2023-12-07T09:06:10;101842.06;;;5.99;66.15
70976;BME280;58635;51.198;6.010;2023-12-07T09:08:37;101830.19;;;5.98;65.98
70976;BME280;58635;51.198;6.010;2023-12-07T09:11:03;101827.47;;;5.99;66.06
70976;BME280;58635;51.198;6.010;2023-12-07T09:13:30;101830.06;;;5.99;66.04
70976;BME280;58635;51.198;6.010;2023-12-07T09:15:56;101832.47;;;6.01;66.31
70976;BME280;58635;51.198;6.010;2023-12-07T09:18:23;101832.47;;;6.01;66.32
70976;BME280;58635;51.198;6.010;2023-12-07T09:20:50;101820.06;;;5.96;66.29
70976;BME280;58635;51.198;6.010;2023-12-07T09:23:16;101821.41;;;5.91;66.16
70976;BME280;58635;51.198;6.010;2023-12-07T09:25:43;101824.50;;;5.84;66.16
70976;BME280;58635;51.198;6.010;2023-12-07T09:28:09;101828.03;;;5.83;66.13
70976;BME280;58635;51.198;6.010;2023-12-07T09:30:36;101833.69;;;5.87;66.30
70976;BME280;58635;51.198;6.010;2023-12-07T09:33:02;101836.81;;;5.91;66.13
70976;BME280;58635;51.198;6.010;2023-12-07T09:35:32;101838.31;;;5.93;66.17
70976;BME280;58635;51.198;6.010;2023-12-07T09:38:00;101824.91;;;5.99;66.27
70976;BME280;58635;51.198;6.010;2023-12-07T09:40:27;101824.53;;;6.04;66.31
70976;BME280;58635;51.198;6.010;2023-12-07T09:42:54;101819.91;;;6.07;65.96
70976;BME280;58635;51.198;6.010;2023-12-07T09:45:21;101818.66;;;6.11;66.21
70976;BME280;58635;51.198;6.010;2023-12-07T09:47:51;101808.25;;;6.13;65.98
70976;BME280;58635;51.198;6.010;2023-12-07T09:50:20;101809.72;;;6.15;65.73
70976;BME280;58635;51.198;6.010;2023-12-07T09:52:50;101809.47;;;6.19;65.69
70976;BME280;58635;51.198;6.010;2023-12-07T09:55:18;101806.75;;;6.20;65.80
70976;BME280;58635;51.198;6.010;2023-12-07T09:57:49;101804.84;;;6.22;65.76
70976;BME280;58635;51.198;6.010;2023-12-07T10:00:16;101799.06;;;6.20;65.58
70976;BME280;58635;51.198;6.010;2023-12-07T10:02:42;101792.44;;;6.18;65.79
70976;BME280;58635;51.198;6.010;2023-12-07T10:05:10;101783.78;;;6.19;65.65
70976;BME280;58635;51.198;6.010;2023-12-07T10:07:40;101781.47;;;6.15;65.45
70976;BME280;58635;51.198;6.010;2023-12-07T10:10:07;101776.09;;;6.09;65.43
70976;BME280;58635;51.198;6.010;2023-12-07T10:12:34;101774.88;;;6.03;65.75
70976;BME280;58635;51.198;6.010;2023-12-07T10:15:11;101769.63;;;6.05;65.84
70976;BME280;58635;51.198;6.010;2023-12-07T10:17:46;101766.78;;;6.08;65.40
70976;BME280;58635;51.198;6.010;2023-12-07T10:20:24;101764.44;;;6.14;65.52
70976;BME280;58635;51.198;6.010;2023-12-07T10:23:08;101753.91;;;6.18;65.26
70976;BME280;58635;51.198;6.010;2023-12-07T10:25:39;101747.69;;;6.20;65.40
70976;BME280;58635;51.198;6.010;2023-12-07T10:28:07;101743.63;;;6.18;65.32
70976;BME280;58635;51.198;6.010;2023-12-07T10:30:34;101741.34;;;6.14;65.48
70976;BME280;58635;51.198;6.010;2023-12-07T10:33:04;101732.72;;;6.06;65.30
70976;BME280;58635;51.198;6.010;2023-12-07T10:35:31;101727.19;;;6.01;65.68
70976;BME280;58635;51.198;6.010;2023-12-07T10:37:58;101717.06;;;5.99;65.68
70976;BME280;58635;51.198;6.010;2023-12-07T10:40:24;101713.03;;;5.97;65.76
70976;BME280;58635;51.198;6.010;2023-12-07T10:42:55;101705.97;;;5.99;65.85
70976;BME280;58635;51.198;6.010;2023-12-07T10:45:24;101703.41;;;5.99;66.01
70976;BME280;58635;51.198;6.010;2023-12-07T10:47:53;101703.94;;;6.02;65.85
70976;BME280;58635;51.198;6.010;2023-12-07T10:50:23;101699.50;;;6.04;66.04
70976;BME280;58635;51.198;6.010;2023-12-07T10:52:52;101696.63;;;6.07;66.06
70976;BME280;58635;51.198;6.010;2023-12-07T10:55:22;101690.09;;;6.13;65.86
70976;BME280;58635;51.198;6.010;2023-12-07T10:57:53;101680.38;;;6.17;65.78
70976;BME280;58635;51.198;6.010;2023-12-07T11:00:21;101680.22;;;6.18;66.07
70976;BME280;58635;51.198;6.010;2023-12-07T11:02:50;101674.00;;;6.21;65.89
70976;BME280;58635;51.198;6.010;2023-12-07T11:05:18;101674.50;;;6.24;65.71
70976;BME280;58635;51.198;6.010;2023-12-07T11:08:02;101671.78;;;6.26;65.88
70976;BME280;58635;51.198;6.010;2023-12-07T11:10:36;101674.50;;;6.24;65.92
70976;BME280;58635;51.198;6.010;2023-12-07T11:13:21;101678.69;;;6.25;65.75
70976;BME280;58635;51.198;6.010;2023-12-07T11:15:48;101674.50;;;6.24;65.92
70976;BME280;58635;51.198;6.010;2023-12-07T11:18:15;101670.44;;;6.31;65.59
70976;BME280;58635;51.198;6.010;2023-12-07T11:20:44;101664.84;;;6.36;65.54
70976;BME280;58635;51.198;6.010;2023-12-07T11:23:12;101654.16;;;6.40;65.52
70976;BME280;58635;51.198;6.010;2023-12-07T11:25:43;101655.63;;;6.43;65.54
70976;BME280;58635;51.198;6.010;2023-12-07T11:28:10;101663.69;;;6.48;65.51
70976;BME280;58635;51.198;6.010;2023-12-07T11:30:37;101652.31;;;6.51;65.51
70976;BME280;58635;51.198;6.010;2023-12-07T11:33:05;101641.63;;;6.55;65.72
70976;BME280;58635;51.198;6.010;2023-12-07T11:35:34;101642.13;;;6.59;65.77
70976;BME280;58635;51.198;6.010;2023-12-07T11:38:18;101644.28;;;6.63;65.64
70976;BME280;58635;51.198;6.010;2023-12-07T11:40:45;101639.94;;;6.64;65.60
70976;BME280;58635;51.198;6.010;2023-12-07T11:43:36;101643.66;;;6.69;65.35
70976;BME280;58635;51.198;6.010;2023-12-07T11:46:04;101638.38;;;6.71;65.47
70976;BME280;58635;51.198;6.010;2023-12-07T11:48:30;101634.44;;;6.77;65.65
70976;BME280;58635;51.198;6.010;2023-12-07T11:50:58;101628.81;;;6.81;65.52
70976;BME280;58635;51.198;6.010;2023-12-07T11:53:27;101626.75;;;6.85;65.58
70976;BME280;58635;51.198;6.010;2023-12-07T11:55:56;101622.16;;;6.88;65.17
70976;BME280;58635;51.198;6.010;2023-12-07T11:58:30;101609.00;;;6.91;65.32
70976;BME280;58635;51.198;6.010;2023-12-07T12:00:57;101600.16;;;6.94;65.23
70976;BME280;58635;51.198;6.010;2023-12-07T12:03:24;101600.66;;;6.97;65.20
70976;BME280;58635;51.198;6.010;2023-12-07T12:05:52;101601.19;;;7.01;65.13
70976;BME280;58635;51.198;6.010;2023-12-07T12:08:19;101599.94;;;7.05;65.12
70976;BME280;58635;51.198;6.010;2023-12-07T12:10:46;101591.75;;;7.10;65.33
70976;BME280;58635;51.198;6.010;2023-12-07T12:13:13;101588.75;;;7.14;65.01
70976;BME280;58635;51.198;6.010;2023-12-07T12:15:40;101578.94;;;7.18;65.03
70976;BME280;58635;51.198;6.010;2023-12-07T12:18:08;101568.50;;;7.19;64.89
70976;BME280;58635;51.198;6.010;2023-12-07T12:20:35;101565.44;;;7.16;65.04
70976;BME280;58635;51.198;6.010;2023-12-07T12:23:02;101564.97;;;7.20;65.09
70976;BME280;58635;51.198;6.010;2023-12-07T12:25:29;101568.22;;;7.22;65.04
70976;BME280;58635;51.198;6.010;2023-12-07T12:28:02;101575.47;;;7.27;64.88
70976;BME280;58635;51.198;6.010;2023-12-07T12:30:29;101564.06;;;7.29;64.99
70976;BME280;58635;51.198;6.010;2023-12-07T12:32:56;101553.78;;;7.29;64.65
70976;BME280;58635;51.198;6.010;2023-12-07T12:35:23;101554.56;;;7.30;64.68
70976;BME280;58635;51.198;6.010;2023-12-07T12:37:50;101550.88;;;7.32;64.44
70976;BME280;58635;51.198;6.010;2023-12-07T12:40:22;101548.19;;;7.34;64.19
70976;BME280;58635;51.198;6.010;2023-12-07T12:42:50;101536.56;;;7.30;64.46
70976;BME280;58635;51.198;6.010;2023-12-07T12:45:18;101539.63;;;7.33;63.90
70976;BME280;58635;51.198;6.010;2023-12-07T12:47:45;101533.38;;;7.36;64.04
70976;BME280;58635;51.198;6.010;2023-12-07T12:52:58;101521.00;;;7.40;64.13
70976;BME280;58635;51.198;6.010;2023-12-07T12:55:30;101516.50;;;7.42;64.04
70976;BME280;58635;51.198;6.010;2023-12-07T12:57:56;101509.75;;;7.41;63.90
70976;BME280;58635;51.198;6.010;2023-12-07T13:00:26;101512.00;;;7.44;63.96
70976;BME280;58635;51.198;6.010;2023-12-07T13:02:52;101499.94;;;7.44;63.68
70976;BME280;58635;51.198;6.010;2023-12-07T13:05:19;101497.53;;;7.43;63.70